createdAt,value
2018-04-06T00:00:40.400Z,9.90
2018-04-06T00:05:42.901Z,9.90
2018-04-06T00:10:45.402Z,9.70
2018-04-06T00:15:47.881Z,9.90
2018-04-06T00:20:50.369Z,9.60
2018-04-06T00:25:53.625Z,9.60
2018-04-06T00:30:56.138Z,10.10
2018-04-06T00:35:58.613Z,9.70
2018-04-06T00:41:01.109Z,10.10
2018-04-06T00:46:03.601Z,9.90
2018-04-06T00:51:06.097Z,9.60
2018-04-06T00:56:08.577Z,9.60
2018-04-06T01:01:11.061Z,9.60
2018-04-06T01:06:13.550Z,9.70
2018-04-06T01:11:16.040Z,9.60
2018-04-06T01:16:18.546Z,9.60
2018-04-06T01:21:21.093Z,9.50
2018-04-06T01:26:24.341Z,9.00
2018-04-06T01:31:26.825Z,9.30
2018-04-06T01:36:29.321Z,9.50
2018-04-06T01:41:31.814Z,9.50
2018-04-06T01:46:35.074Z,9.50
2018-04-06T01:51:37.558Z,9.50
2018-04-06T01:56:40.045Z,9.20
2018-04-06T02:01:42.530Z,9.30
2018-04-06T02:06:45.005Z,9.30
2018-04-06T02:11:47.486Z,9.20
2018-04-06T02:16:49.985Z,9.50
2018-04-06T02:21:52.482Z,9.40
2018-04-06T02:26:54.987Z,9.10
2018-04-06T02:31:57.487Z,9.30
2018-04-06T02:36:59.991Z,9.20
2018-04-06T02:42:02.477Z,9.20
2018-04-06T02:47:04.974Z,9.20
2018-04-06T02:52:07.466Z,9.20
2018-04-06T02:57:09.955Z,9.20
2018-04-06T03:02:12.450Z,9.10
2018-04-06T03:07:14.933Z,9.10
2018-04-06T03:12:17.434Z,9.10
2018-04-06T03:17:19.917Z,9.30
2018-04-06T03:22:22.419Z,9.10
2018-04-06T03:27:24.901Z,9.30
2018-04-06T03:32:27.386Z,9.20
2018-04-06T03:37:29.867Z,9.20
2018-04-06T03:42:32.367Z,8.90
2018-04-06T03:47:34.846Z,9.30
2018-04-06T03:52:37.354Z,9.00
2018-04-06T03:57:39.837Z,9.10
2018-04-06T04:02:42.314Z,9.20
2018-04-06T04:07:44.801Z,8.80
2018-04-06T04:12:47.282Z,8.80
2018-04-06T04:17:49.769Z,9.10
2018-04-06T04:22:52.278Z,8.80
2018-04-06T04:27:54.814Z,9.10
2018-04-06T04:32:57.257Z,8.80
2018-04-06T04:37:59.747Z,8.80
2018-04-06T04:43:02.239Z,8.90
2018-04-06T04:48:04.718Z,8.70
2018-04-06T04:53:07.974Z,8.80
2018-04-06T04:58:10.463Z,8.80
2018-04-06T05:03:12.954Z,8.80
2018-04-06T05:08:15.734Z,8.80
2018-04-06T05:13:18.216Z,8.90
2018-04-06T05:18:21.471Z,8.90
2018-04-06T05:23:23.974Z,8.80
2018-04-06T05:28:26.459Z,8.90
2018-04-06T05:33:28.950Z,8.70
2018-04-06T05:38:31.437Z,8.90
2018-04-06T05:43:33.920Z,8.90
2018-04-06T05:48:36.410Z,8.90
2018-04-06T05:53:38.915Z,8.70
2018-04-06T05:58:41.401Z,8.70
2018-04-06T06:03:43.898Z,8.80
2018-04-06T06:08:46.542Z,8.80
2018-04-06T06:13:49.802Z,8.80
2018-04-06T06:18:52.274Z,8.90
2018-04-06T06:23:54.774Z,8.50
2018-04-06T06:28:57.253Z,8.80
2018-04-06T06:33:59.770Z,8.70
2018-04-06T06:39:02.297Z,8.70
2018-04-06T06:44:04.778Z,8.60
2018-04-06T06:49:07.266Z,8.90
2018-04-06T06:54:09.757Z,8.90
2018-04-06T06:59:12.239Z,8.90
2018-04-06T07:04:14.733Z,8.90
2018-04-06T07:09:17.226Z,8.90
2018-04-06T07:14:19.708Z,8.80
2018-04-06T07:19:22.966Z,8.80
2018-04-06T07:24:25.450Z,8.90
2018-04-06T07:29:27.946Z,8.80
2018-04-06T07:34:30.426Z,8.90
2018-04-06T07:39:32.918Z,8.90
2018-04-06T07:44:35.407Z,8.90
2018-04-06T07:49:37.897Z,8.80
2018-04-06T07:54:40.387Z,8.80
2018-04-06T07:59:42.882Z,8.90
2018-04-06T08:04:45.357Z,8.90
2018-04-06T08:09:47.850Z,9.00
2018-04-06T08:14:50.350Z,9.20
2018-04-06T08:19:54.837Z,9.20
2018-04-06T08:24:58.489Z,9.20
2018-04-06T08:30:01.409Z,9.20
2018-04-06T08:35:03.906Z,9.30
2018-04-06T08:40:06.576Z,9.20
2018-04-06T08:45:09.066Z,9.30
2018-04-06T08:50:11.598Z,9.30
2018-04-06T08:55:14.078Z,9.50
2018-04-06T09:00:16.858Z,9.60
2018-04-06T09:05:19.342Z,9.60
2018-04-06T09:10:21.910Z,9.60
2018-04-06T09:15:25.173Z,9.90
2018-04-06T09:20:27.665Z,9.90
2018-04-06T09:25:30.171Z,10.00
2018-04-06T09:30:32.658Z,10.20
2018-04-06T09:35:35.429Z,10.10
2018-04-06T09:40:37.912Z,10.20
2018-04-06T09:45:40.414Z,10.30
2018-04-06T09:50:42.898Z,10.30
2018-04-06T09:55:45.388Z,10.40
2018-04-06T10:00:47.887Z,10.60
2018-04-06T10:05:50.369Z,10.40
2018-04-06T10:10:53.637Z,10.80
2018-04-06T10:15:56.098Z,10.80
2018-04-06T10:20:58.583Z,10.90
2018-04-06T10:26:01.118Z,11.20
2018-04-06T10:31:03.565Z,11.20
2018-04-06T10:36:06.062Z,11.40
2018-04-06T10:41:08.561Z,11.50
2018-04-06T10:46:11.049Z,11.30
2018-04-06T10:51:14.315Z,11.80
2018-04-06T10:56:16.818Z,11.70
2018-04-06T11:01:20.089Z,13.20
2018-04-06T11:06:22.606Z,13.30
2018-04-06T11:11:25.107Z,13.50
2018-04-06T11:16:27.602Z,13.10
2018-04-06T11:21:30.865Z,12.90
2018-04-06T11:26:33.362Z,12.90
2018-04-06T11:31:36.614Z,13.10
2018-04-06T11:36:39.098Z,13.20
2018-04-06T11:41:41.590Z,12.70
2018-04-06T11:46:44.097Z,12.90
2018-04-06T11:51:47.353Z,12.90
2018-04-06T11:56:49.841Z,13.10
2018-04-06T12:01:52.329Z,13.40
2018-04-06T12:06:54.814Z,13.80
2018-04-06T12:11:57.298Z,13.60
2018-04-06T12:16:59.798Z,13.80
2018-04-06T12:22:02.297Z,13.50
2018-04-06T12:27:04.778Z,13.60
2018-04-06T12:32:07.269Z,13.90
2018-04-06T12:37:09.766Z,13.90
2018-04-06T12:42:12.261Z,14.20
2018-04-06T12:47:15.522Z,14.60
2018-04-06T12:52:18.014Z,14.20
2018-04-06T12:57:20.501Z,14.50
2018-04-06T13:02:23.001Z,14.80
2018-04-06T13:07:25.505Z,14.80
2018-04-06T13:12:27.981Z,14.90
2018-04-06T13:17:30.533Z,14.60
2018-04-06T13:22:32.978Z,14.40
2018-04-06T13:27:35.483Z,14.20
2018-04-06T13:32:38.737Z,14.30
2018-04-06T13:37:41.230Z,14.10
2018-04-06T13:42:46.251Z,14.10
2018-04-06T13:47:48.742Z,14.20
2018-04-06T13:52:51.422Z,14.20
2018-04-06T13:57:53.919Z,14.20
2018-04-06T14:02:56.410Z,13.90
2018-04-06T14:07:59.674Z,14.30
2018-04-06T14:13:03.141Z,14.10
2018-04-06T14:18:06.401Z,14.00
2018-04-06T14:23:08.889Z,14.00
2018-04-06T14:28:11.394Z,13.90
2018-04-06T14:33:13.891Z,13.90
2018-04-06T14:38:16.382Z,13.90
2018-04-06T14:43:18.883Z,13.90
2018-04-06T14:48:21.521Z,14.20
2018-04-06T14:53:24.010Z,14.40
2018-04-06T14:58:27.257Z,15.10
2018-04-06T15:03:31.669Z,15.00
2018-04-06T15:08:34.162Z,15.10
2018-04-06T15:13:36.667Z,14.70
2018-04-06T15:18:39.938Z,14.70
2018-04-06T15:23:43.185Z,14.80
2018-04-06T15:28:45.699Z,14.60
2018-04-06T15:33:48.186Z,14.60
2018-04-06T15:38:50.688Z,14.50
2018-04-06T15:43:53.173Z,14.60
2018-04-06T15:48:55.669Z,14.40
2018-04-06T15:53:58.158Z,14.60
2018-04-06T15:59:00.651Z,14.50
2018-04-06T16:04:03.142Z,14.60
2018-04-06T16:09:06.472Z,14.70
2018-04-06T16:14:08.982Z,14.30
2018-04-06T16:19:11.551Z,14.60
2018-04-06T16:24:14.063Z,14.60
2018-04-06T16:29:16.566Z,14.60
2018-04-06T16:34:19.208Z,14.40
2018-04-06T16:39:21.710Z,14.20
2018-04-06T16:44:24.194Z,14.70
2018-04-06T16:49:26.691Z,14.20
2018-04-06T16:54:29.193Z,14.40
2018-04-06T16:59:31.684Z,14.30
2018-04-06T17:04:34.183Z,14.40
2018-04-06T17:09:36.674Z,14.20
2018-04-06T17:14:39.165Z,14.20
2018-04-06T17:19:42.418Z,14.60
2018-04-06T17:24:44.916Z,14.20
2018-04-06T17:29:47.410Z,14.30
2018-04-06T17:34:49.893Z,14.60
2018-04-06T17:39:52.394Z,14.30
2018-04-06T17:44:54.885Z,14.10
2018-04-06T17:49:57.397Z,14.30
2018-04-06T17:54:59.874Z,14.00
2018-04-06T18:00:02.399Z,14.10
2018-04-06T18:05:04.924Z,14.10
2018-04-06T18:10:07.414Z,13.90
2018-04-06T18:15:09.893Z,13.90
2018-04-06T18:20:12.381Z,13.90
2018-04-06T18:25:14.866Z,13.70
2018-04-06T18:30:17.365Z,13.90
2018-04-06T18:35:19.857Z,13.90
2018-04-06T18:40:22.372Z,13.70
2018-04-06T18:45:25.092Z,13.90
2018-04-06T18:50:27.758Z,14.00
2018-04-06T18:55:30.258Z,13.90
2018-04-06T19:00:32.748Z,13.90
2018-04-06T19:05:35.256Z,13.70
2018-04-06T19:10:37.762Z,13.50
2018-04-06T19:15:40.255Z,13.30
2018-04-06T19:20:42.766Z,13.40
2018-04-06T19:25:45.262Z,13.40
2018-04-06T19:30:47.755Z,13.40
2018-04-06T19:35:50.264Z,13.60
2018-04-06T19:40:53.541Z,13.60
2018-04-06T19:45:56.152Z,13.40
2018-04-06T19:50:58.654Z,13.10
2018-04-06T19:56:01.150Z,12.90
2018-04-06T20:01:03.651Z,13.10
2018-04-06T20:06:06.897Z,13.20
2018-04-06T20:11:09.398Z,13.10
2018-04-06T20:16:11.886Z,13.10
2018-04-06T20:21:15.301Z,12.80
2018-04-06T20:26:17.802Z,12.90
2018-04-06T20:31:20.289Z,12.90
2018-04-06T20:36:22.782Z,13.10
2018-04-06T20:41:25.273Z,12.80
2018-04-06T20:46:27.770Z,12.90
2018-04-06T20:51:30.275Z,12.90
2018-04-06T20:56:32.753Z,12.60
2018-04-06T21:01:35.258Z,12.80
2018-04-06T21:06:37.754Z,12.40
2018-04-06T21:11:40.248Z,12.70
2018-04-06T21:16:42.738Z,12.80
2018-04-06T21:21:45.224Z,12.80
2018-04-06T21:26:47.702Z,12.70
2018-04-06T21:31:50.204Z,12.50
2018-04-06T21:36:52.714Z,12.70
2018-04-06T21:41:55.193Z,12.40
2018-04-06T21:46:57.674Z,12.40
2018-04-06T21:52:00.163Z,12.10
2018-04-06T21:57:02.685Z,12.40
2018-04-06T22:02:05.165Z,12.10
2018-04-06T22:07:07.659Z,12.40
2018-04-06T22:12:10.158Z,12.10
2018-04-06T22:17:12.653Z,12.10
2018-04-06T22:22:15.153Z,12.00
2018-04-06T22:27:17.641Z,12.00
2018-04-06T22:32:20.126Z,12.20
2018-04-06T22:37:22.610Z,12.00
2018-04-06T22:42:25.097Z,12.10
2018-04-06T22:47:27.605Z,12.10
2018-04-06T22:52:30.090Z,12.10
2018-04-06T22:57:32.593Z,12.00
2018-04-06T23:02:35.094Z,12.00
2018-04-06T23:07:37.578Z,11.90
2018-04-06T23:12:40.222Z,11.90
2018-04-06T23:17:43.597Z,11.90
2018-04-06T23:22:46.094Z,11.80
2018-04-06T23:27:48.581Z,12.10
2018-04-06T23:32:51.079Z,11.80
2018-04-06T23:37:53.577Z,11.70
2018-04-06T23:42:56.060Z,11.70
2018-04-06T23:47:58.569Z,11.70
2018-04-06T23:53:01.062Z,11.80
2018-04-06T23:58:03.571Z,11.70
